METAR Rapporter från flygplatser

 

ESTA - Ängelholm, Sweden
Distance from station: SSV 17km
Uppdaterad: 2019-09-17 03:50
Light drizzle, Helmulet
Light drizzle, Helmulet
 Vind från VNV
Vind: VNV 41 km/h
Temperatur: 12°C
Daggpunkt: 7°C
Luftfuktighet: 72%
Barometer: 1007 hPa
Summering: Light Drizzle
Clouds: Helmulet
Visibility: 10 km
Cloud details: Delvis molnigt 671 m
Övervägande molnigt 1890 m
Helmulet 2560 m
2019/09/17 01:50 ESTA 170150Z AUTO 30022KT 9999 -DZ SCT022/// BKN062/// OVC084/// 12/07 Q1007
ESMT - Halmstad, Sweden
Distance from station: N 26km
Uppdaterad: 2019-09-17 03:50
Övervägande molnigt
Övervägande molnigt
 Vind från V
Vind: V 37 km/h, Vindby: 57 km/h
Temperatur: 12°C
Daggpunkt: 8°C
Luftfuktighet: 77%
Barometer: 1006 hPa
Clouds: Övervägande molnigt
Visibility: 10 km
Cloud details: Enstaka moln 671 m
Delvis molnigt 1036 m
Övervägande molnigt 1463 m
2019/09/17 01:50 ESMT 170150Z AUTO 28020G31KT 9999 FEW022/// SCT034/// BKN048/// 12/08 Q1006 RESHUP
 
ESTL - Ljungbyhed, Sweden
Distance from station: SSO 45km
Uppdaterad: 2019-09-17 03:50
Övervägande molnigt
Övervägande molnigt
 Vind från VSV
Vind: VSV 15 km/h
Temperatur: 11°C
Daggpunkt: 8°C
Luftfuktighet: 82%
Barometer: 1008 hPa
Clouds: Övervägande molnigt
Visibility: 10 km
Cloud details: Enstaka moln 762 m
Delvis molnigt 914 m
Övervägande molnigt 1524 m
2019/09/17 01:50 ESTL 170150Z AUTO 25008KT 9999 FEW025/// SCT030/// BKN050/// 11/08 Q1008
EKCH - Copenhagen/Kastrup, Denmark
Distance from station: S 92km
Uppdaterad: 2019-09-17 03:50
Övervägande molnigt
Övervägande molnigt
 Vind från V
Vind: V 24 km/h
Temperatur: 11°C
Daggpunkt: 8°C
Luftfuktighet: 82%
Barometer: 1010 hPa
Clouds: Övervägande molnigt
Visibility: 10 km
Cloud details: Övervägande molnigt 3048 m
2019/09/17 01:50 EKCH 170150Z AUTO 26013KT 9999 BKN100/// 11/08 Q1010 NOSIG
 
ESMK - Kristianstad/Everöd, Sweden
Distance from station: SO 93km
Uppdaterad: 2019-09-17 03:50
Klart
Klart
 Vind från VSV
Vind: VSV 17 km/h
Temperatur: 10°C
Wind Chill: 8°C
Daggpunkt: 8°C
Luftfuktighet: 88%
Barometer: 1008 hPa
Clouds: Klart
Visibility: 10 km
2019/09/17 01:50 ESMK 170150Z AUTO 25009KT 9999 // NCD 10/08 Q1008
ESMS - Malmö/Sturup, Sweden
Distance from station: SSO 104km
Uppdaterad: 2019-09-17 03:50
Klart
Klart
 Vind från V
Vind: V 22 km/h
Temperatur: 10°C
Wind Chill: 7°C
Daggpunkt: 7°C
Luftfuktighet: 82%
Barometer: 1010 hPa
Summering: Klart
Visibility: greater than 10 km
2019/09/17 01:50 ESMS 170150Z 26012KT CAVOK 10/07 Q1010
 
EKRK - Copenhagen/Roskilde, Denmark
Distance from station: SSV 108km
Uppdaterad: 2019-09-17 03:50
Enstaka moln
Enstaka moln
 Vind från V
Vind: V 17 km/h
Temperatur: 10°C
Wind Chill: 8°C
Daggpunkt: 8°C
Luftfuktighet: 88%
Barometer: 1010 hPa
Clouds: Enstaka moln
Visibility: 10 km
Cloud details: Enstaka moln 792 m
2019/09/17 01:50 EKRK 170150Z AUTO 26009KT 9999 FEW026/// 10/08 Q1010
ESMX - Växjö/Kronoberg, Sweden
Distance from station: ONO 124km
Uppdaterad: 2019-09-17 03:50
Klart
Klart
 Vind från SV
Vind: SV 15 km/h
Temperatur: 7°C
Wind Chill: 4°C
Daggpunkt: 7°C
Luftfuktighet: 100%
Barometer: 1005 hPa
Clouds: Klart
Visibility: 10 km
2019/09/17 01:50 ESMX 170150Z AUTO 23008KT 9999 NCD 07/07 Q1005
 
EKAH - Tirstrup, Denmark
Distance from station: V 141km
Uppdaterad: 2019-09-17 03:50
Övervägande molnigt
Övervägande molnigt
 Vind från VSV
Vind: VSV 19 km/h
Temperatur: 10°C
Wind Chill: 7°C
Daggpunkt: 8°C
Luftfuktighet: 88%
Barometer: 1010 hPa
Clouds: Övervägande molnigt
Visibility: 10 km
Cloud details: Enstaka moln 732 m
Delvis molnigt 1097 m
Övervägande molnigt 2286 m
2019/09/17 01:50 EKAH 170150Z AUTO 25010KT 220V280 9999NDV FEW024/// SCT036/// BKN075/// 10/08 Q1010
ESGG - Göteborg/Landvetter, Sweden
Distance from station: NNV 142km
Uppdaterad: 2019-09-17 03:50
Övervägande molnigt
Övervägande molnigt
 Vind från V
Vind: V 17 km/h
Temperatur: 9°C
Wind Chill: 7°C
Daggpunkt: 5°C
Luftfuktighet: 76%
Barometer: 1004 hPa
Clouds: Övervägande molnigt
Visibility: 10 km
Cloud details: Delvis molnigt 823 m
Övervägande molnigt 2865 m
2019/09/17 01:50 ESGG 170150Z 26009KT 9999 SCT027 BKN094 09/05 Q1004
 
ESDF - Ronneby, Sweden
Distance from station: O 147km
Uppdaterad: 2019-09-17 03:50
Helmulet
Helmulet
 Vind från VSV
Vind: VSV 13 km/h
Temperatur: 9°C
Wind Chill: 7°C
Daggpunkt: 8°C
Luftfuktighet: 94%
Barometer: 1007 hPa
Clouds: Helmulet
Visibility: 10 km
Cloud details: Helmulet 2438 m
2019/09/17 01:50 ESDF 170150Z AUTO 24007KT 9999 OVC080/// 09/08 Q1007
ESGP - Göteborg/Säve, Sweden
Distance from station: NNV 161km
Uppdaterad: 2017-01-02 11:20
NOT Current
Klart
Klart
 Vind från calm
Vind: Vindstilla
Temperatur: -2°C
Daggpunkt: -4°C
Luftfuktighet: 86%
Barometer: 1012 hPa
Clouds: Klart
Visibility: 10 km
2017/01/02 10:20 ESGP 021020Z AUTO 00000KT 9999 NCD M02/M04 Q1012
 
ESGJ - Jönköping Airport, Sweden
Distance from station: NNO 164km
Uppdaterad: 2019-09-17 03:50
Övervägande molnigt
Övervägande molnigt
 Vind från SSV
Vind: SSV 9 km/h
Temperatur: 7°C
Wind Chill: 6°C
Daggpunkt: 7°C
Luftfuktighet: 100%
Barometer: 1003 hPa
Clouds: Övervägande molnigt
Visibility: 10 km
Cloud details: Övervägande molnigt 366 m
2019/09/17 01:50 ESGJ 170150Z AUTO 20005KT 9999 BKN012/// 07/07 Q1003
EKAV - Avno, Denmark
Distance from station: SSV 168km
Uppdaterad: 2016-10-04 06:20
NOT Current
Klart
Klart
 
Barometer: 1039 hPa
Clouds: Klart
Visibility: 10 km
2016/10/04 04:20 EKAV 040420Z AUTO ///// 9999NDV NCD ///// Q1039
 
EKRN - Rönne, Denmark
Distance from station: SO 191km
Uppdaterad: 2019-09-17 03:50
Övervägande molnigt
Övervägande molnigt
 Vind från V
Vind: V 35 km/h
Temperatur: 13°C
Daggpunkt: 8°C
Luftfuktighet: 72%
Barometer: 1010 hPa
Clouds: Övervägande molnigt
Visibility: 10 km
Cloud details: Delvis molnigt 671 m
Övervägande molnigt 6706 m
2019/09/17 01:50 EKRN 170150Z AUTO 28019KT 9999 SCT022/// BKN220/// 13/08 Q1010
EKOD - Odense/Beldringe, Denmark
Distance from station: VSV 193km
Uppdaterad: 2019-09-16 16:50
NOT Current
Enstaka moln
Enstaka moln
 Vind från V
Vind: V 31 km/h
Temperatur: 15°C
Daggpunkt: 8°C
Luftfuktighet: 63%
Barometer: 1015 hPa
Clouds: Enstaka moln
Visibility: 10 km
Cloud details: Enstaka moln 1341 m
2019/09/16 14:50 EKOD 161450Z 28017KT 9999 FEW044 15/08 Q1015
 
EKYT - AAlborg, Denmark
Distance from station: VNV 199km
Uppdaterad: 2019-09-17 03:50
Enstaka moln
Enstaka moln
 Vind från VNV
Vind: VNV 26 km/h
Temperatur: 10°C
Wind Chill: 7°C
Daggpunkt: 5°C
Luftfuktighet: 71%
Barometer: 1008 hPa
Clouds: Enstaka moln
Visibility: 10 km
Cloud details: Enstaka moln 2591 m
2019/09/17 01:50 EKYT 170150Z AUTO 29014KT 9999 FEW085/// 10/05 Q1008
EKSN - Sindal Airport, Denmark
Distance from station: NV 201km
Uppdaterad: 2019-09-16 15:50
NOT Current
Enstaka moln
Enstaka moln
 Vind från V
Vind: V 41 km/h, Vindby: 63 km/h
Temperatur: 14°C
Daggpunkt: 7°C
Luftfuktighet: 63%
Barometer: 1011 hPa
Clouds: Enstaka moln
Visibility: 10 km
Cloud details: Enstaka moln 762 m
2019/09/16 13:50 EKSN 161350Z 27022G34KT 9999 FEW025 14/07 Q1011
 
ESMQ - Kalmar, Sweden
Distance from station: O 211km
Uppdaterad: 2019-09-17 03:50
Klart
Klart
 Vind från VSV
Vind: VSV 13 km/h
Temperatur: 8°C
Wind Chill: 6°C
Daggpunkt: 7°C
Luftfuktighet: 93%
Barometer: 1006 hPa
Clouds: Klart
Visibility: 10 km
2019/09/17 01:50 ESMQ 170150Z AUTO 24007KT 9999 NCD 08/07 Q1006
ESGT - Trollhättan, Sweden
Distance from station: N 212km
Uppdaterad: 2019-09-17 03:50
Helmulet
Helmulet
 Vind från V
Vind: V 9 km/h
Temperatur: 10°C
Wind Chill: 9°C
Daggpunkt: 7°C
Luftfuktighet: 82%
Barometer: 1002 hPa
Clouds: Helmulet
Visibility: 10 km
Cloud details: Övervägande molnigt 1158 m
Helmulet 1676 m
2019/09/17 01:50 ESGT 170150Z AUTO 26005KT 9999 BKN038/// OVC055/// 10/07 Q1002 RESHUP